Time;durP1;ratioP1;P1;durP2;ratioP2;P2;SDS_P1;SDS_P2;PMS_P1;PMS_P2;Temp;Humidity;BMP_temperature;BMP_pressure;BME280_temperature;BME280_humidity;BME280_pressure;Samples;Min_cycle;Max_cycle;Signal;HPM_P1;HPM_P2
2022/06/29 00:02:16;;;;;;;;;;;;;;;;;;5115800;28;19947;-79
2022/06/29 00:04:42;;;;;;;;;;;;;;;;;;5116758;28;20321;-79
2022/06/29 00:07:07;;;;;;;;;;;;;;;;;;5116740;28;19916;-79
2022/06/29 00:09:32;;;;;;;;;;;;;;;;;;5116366;28;19947;-80
2022/06/29 00:11:58;;;;;;;;;;;;;;;;;;5116522;28;20404;-80
2022/06/29 00:14:23;;;;;;;;;;;;;;;;;;5116449;28;20369;-80
2022/06/29 00:16:49;;;;;;;;;;;;;;;;;;5115325;28;20249;-79
2022/06/29 00:19:14;;;;;;;;;;;;;;;;;;5116667;28;20034;-79
2022/06/29 00:21:39;;;;;;;;;;;;;;;;;;5115213;28;19915;-79
2022/06/29 00:24:05;;;;;;;;;;;;;;;;;;5114899;28;19916;-79
2022/06/29 00:26:31;;;;;;;;;;;;;;;;;;5116373;28;19916;-79
2022/06/29 00:28:56;;;;;;;;;;;;;;;;;;5116154;28;19916;-81
2022/06/29 00:31:21;;;;;;;;;;;;;;;;;;5116244;28;19916;-80
2022/06/29 00:33:47;;;;;;;;;;;;;;;;;;5115427;28;19972;-80
2022/06/29 00:36:12;;;;;;;;;;;;;;;;;;5115168;28;20241;-80
2022/06/29 00:38:37;;;;;;;;;;;;;;;;;;5114683;28;20242;-79
2022/06/29 00:41:03;;;;;;;;;;;;;;;;;;5115292;28;19919;-80
2022/06/29 00:43:28;;;;;;;;;;;;;;;;;;5116455;28;19922;-79
2022/06/29 00:45:53;;;;;;;;;;;;;;;;;;5116007;28;19969;-80
2022/06/29 00:48:19;;;;;;;;;;;;;;;;;;5114680;28;19958;-79
2022/06/29 00:50:44;;;;;;;;;;;;;;;;;;5115830;28;19922;-80
2022/06/29 00:53:09;;;;;;;;;;;;;;;;;;5115469;28;20330;-80
2022/06/29 00:55:36;;;;;;;;;;;;;;;;;;5114951;28;20014;-79
2022/06/29 00:58:04;;;;;;;;;;;;;;;;;;5116123;28;19916;-79
2022/06/29 01:00:30;;;;;;;;;;;;;;;;;;5115999;28;19923;-80
2022/06/29 01:02:57;;;;;;;;;;;;;;;;;;5114611;28;19916;-80
2022/06/29 01:05:22;;;;;;;;;;;;;;;;;;5115656;28;19922;-81
2022/06/29 01:07:47;;;;;;;;;;;;;;;;;;5113263;28;20337;-80
2022/06/29 01:10:13;;;;;;;;;;;;;;;;;;5115554;28;20322;-80
2022/06/29 01:12:38;;;;;;;;;;;;;;;;;;5115360;28;19977;-79
2022/06/29 01:15:04;;;;;;;;;;;;;;;;;;5115445;28;20006;-79
2022/06/29 01:17:29;;;;;;;;;;;;;;;;;;5115428;28;19916;-79
2022/06/29 01:19:54;;;;;;;;;;;;;;;;;;5115530;28;19973;-78
2022/06/29 01:22:23;;;;;;;;;;;;;;;;;;5115248;28;19949;-79
2022/06/29 01:24:49;;;;;;;;;;;;;;;;;;5115348;28;19962;-79
2022/06/29 01:27:14;;;;;;;;;;;;;;;;;;5115312;28;19951;-79
2022/06/29 01:29:40;;;;;;;;;;;;;;;;;;5115284;28;20328;-79
2022/06/29 01:32:05;;;;;;;;;;;;;;;;;;5115169;28;20348;-79
2022/06/29 01:34:31;;;;;;;;;;;;;;;;;;5115095;28;20344;-79
2022/06/29 01:36:57;;;;;;;;;;;;;;;;;;5114965;28;19963;-79
2022/06/29 01:39:22;;;;;;;;;;;;;;;;;;5113837;28;20257;-79
2022/06/29 01:41:47;;;;;;;;;;;;;;;;;;5114024;28;20307;-79
2022/06/29 01:44:13;;;;;;;;;;;;;;;;;;5115319;28;19976;-79
2022/06/29 01:46:38;;;;;;;;;;;;;;;;;;5115113;28;20345;-79
2022/06/29 01:49:03;;;;;;;;;;;;;;;;;;5115036;28;19916;-79
2022/06/29 01:51:29;;;;;;;;;;;;;;;;;;5114696;28;19916;-79
2022/06/29 01:53:54;;;;;;;;;;;;;;;;;;5113854;28;19923;-79
2022/06/29 01:56:19;;;;;;;;;;;;;;;;;;5115018;28;20014;-80
2022/06/29 01:58:45;;;;;;;;;;;;;;;;;;5113666;28;19922;-80
2022/06/29 02:01:11;;;;;;;;;;;;;;;;;;5096776;28;19926;-79
2022/06/29 02:03:36;;;;;;;;;;;;;;;;;;5113891;28;19916;-81
2022/06/29 02:06:02;;;;;;;;;;;;;;;;;;5113600;28;20014;-79
2022/06/29 02:08:27;;;;;;;;;;;;;;;;;;5115171;28;19965;-79
2022/06/29 02:10:53;;;;;;;;;;;;;;;;;;5114661;28;20323;-80
2022/06/29 02:13:18;;;;;;;;;;;;;;;;;;5114786;28;19922;-81
2022/06/29 02:15:43;;;;;;;;;;;;;;;;;;5114804;28;20249;-79
2022/06/29 02:18:09;;;;;;;;;;;;;;;;;;5113826;28;19970;-79
2022/06/29 02:20:34;;;;;;;;;;;;;;;;;;5118516;28;20002;-79
2022/06/29 02:22:59;;;;;;;;;;;;;;;;;;5118893;28;20053;-79
2022/06/29 02:25:25;;;;;;;;;;;;;;;;;;5117553;28;20063;-79
2022/06/29 02:27:50;;;;;;;;;;;;;;;;;;5117465;28;19951;-79
2022/06/29 02:30:15;;;;;;;;;;;;;;;;;;5118929;28;20310;-79
2022/06/29 02:35:24;;;;;;;;;;;;;;;;;;5118410;28;19971;-79
2022/06/29 02:37:50;;;;;;;;;;;;;;;;;;5118605;28;19915;-79
2022/06/29 02:40:15;;;;;;;;;;;;;;;;;;5118401;28;20008;-79
2022/06/29 02:42:40;;;;;;;;;;;;;;;;;;5118389;28;20034;-81
2022/06/29 02:45:06;;;;;;;;;;;;;;;;;;5118092;28;19923;-80
2022/06/29 02:47:31;;;;;;;;;;;;;;;;;;5117945;28;19999;-79
2022/06/29 02:49:57;;;;;;;;;;;;;;;;;;5118356;28;20171;-79
2022/06/29 02:52:22;;;;;;;;;;;;;;;;;;5118440;28;20382;-79
2022/06/29 02:54:47;;;;;;;;;;;;;;;;;;5118915;28;19916;-79
2022/06/29 02:57:12;;;;;;;;;;;;;;;;;;5123852;28;19916;-79
2022/06/29 02:59:38;;;;;;;;;;;;;;;;;;5124773;28;19911;-78
2022/06/29 03:02:03;;;;;;;;;;;;;;;;;;5129084;28;19969;-79
2022/06/29 03:04:28;;;;;;;;;;;;;;;;;;5102444;28;19919;-80
2022/06/29 03:06:54;;;;;;;;;;;;;;;;;;5131229;28;19912;-79
2022/06/29 03:09:19;;;;;;;;;;;;;;;;;;5127891;28;19942;-78
2022/06/29 03:11:44;;;;;;;;;;;;;;;;;;5136203;28;19924;-78
2022/06/29 03:14:10;;;;;;;;;;;;;;;;;;5138416;28;19920;-79
2022/06/29 03:16:35;;;;;;;;;;;;;;;;;;5136136;28;19915;-79
2022/06/29 03:19:00;;;;;;;;;;;;;;;;;;5117752;28;19912;-79
2022/06/29 03:21:26;;;;;;;;;;;;;;;;;;5117926;28;19920;-78
2022/06/29 03:23:51;;;;;;;;;;;;;;;;;;5116641;28;20239;-79
2022/06/29 03:26:17;;;;;;;;;;;;;;;;;;5117614;28;20369;-78
2022/06/29 03:28:43;;;;;;;;;;;;;;;;;;5117982;28;19923;-79
2022/06/29 03:31:08;;;;;;;;;;;;;;;;;;5115328;28;19912;-79
2022/06/29 03:33:33;;;;;;;;;;;;;;;;;;5117030;28;19916;-79
2022/06/29 03:35:59;;;;;;;;;;;;;;;;;;5117460;28;19923;-79
2022/06/29 03:38:24;;;;;;;;;;;;;;;;;;5117361;28;19919;-79
2022/06/29 03:40:49;;;;;;;;;;;;;;;;;;5117358;28;20325;-79
2022/06/29 03:43:15;;;;;;;;;;;;;;;;;;5117213;28;19994;-79
2022/06/29 03:45:40;;;;;;;;;;;;;;;;;;5117146;28;19916;-79
2022/06/29 03:48:06;;;;;;;;;;;;;;;;;;5117091;28;19988;-79
2022/06/29 03:50:32;;;;;;;;;;;;;;;;;;5117171;28;20335;-80
2022/06/29 03:52:57;;;;;;;;;;;;;;;;;;5115810;28;19920;-79
2022/06/29 03:55:22;;;;;;;;;;;;;;;;;;5116845;28;19919;-79
2022/06/29 03:57:48;;;;;;;;;;;;;;;;;;5116982;28;20072;-78
2022/06/29 04:00:13;;;;;;;;;;;;;;;;;;5116888;28;19973;-79
2022/06/29 04:02:38;;;;;;;;;;;;;;;;;;5116901;28;19998;-79
2022/06/29 04:05:04;;;;;;;;;;;;;;;;;;5115935;28;19922;-85
2022/06/29 04:07:30;;;;;;;;;;;;;;;;;;5099674;28;19915;-87
2022/06/29 04:09:59;;;;;;;;;;;;;;;;;;5099861;28;19916;-85
2022/06/29 04:12:34;;;;;;;;;;;;;;;;;;5116600;28;19920;-85
2022/06/29 04:14:59;;;;;;;;;;;;;;;;;;5115877;28;19972;-85
2022/06/29 04:17:35;;;;;;;;;;;;;;;;;;5116278;28;20010;-86
2022/06/29 04:20:01;;;;;;;;;;;;;;;;;;5115692;28;20270;-85
2022/06/29 04:22:26;;;;;;;;;;;;;;;;;;5115484;28;19915;-85
2022/06/29 04:24:51;;;;;;;;;;;;;;;;;;5098618;28;19962;-84
2022/06/29 04:27:17;;;;;;;;;;;;;;;;;;5115000;28;20317;-84
2022/06/29 04:29:42;;;;;;;;;;;;;;;;;;5114879;28;19916;-86
2022/06/29 04:32:08;;;;;;;;;;;;;;;;;;5098395;28;19986;-86
2022/06/29 04:34:34;;;;;;;;;;;;;;;;;;5098147;28;20391;-85
2022/06/29 04:36:59;;;;;;;;;;;;;;;;;;5115161;28;20006;-85
2022/06/29 04:39:24;;;;;;;;;;;;;;;;;;5116313;28;19987;-84
2022/06/29 04:41:52;;;;;;;;;;;;;;;;;;5116092;28;19965;-85
2022/06/29 04:44:26;;;;;;;;;;;;;;;;;;5121263;28;19939;-85
2022/06/29 04:47:00;;;;;;;;;;;;;;;;;;5099209;28;19919;-86
2022/06/29 04:49:41;;;;;;;;;;;;;;;;;;5101128;28;20000;-86
2022/06/29 04:52:12;;;;;;;;;;;;;;;;;;5116207;28;20344;-85
2022/06/29 04:54:44;;;;;;;;;;;;;;;;;;5112739;28;19919;-85
2022/06/29 04:57:09;;;;;;;;;;;;;;;;;;5097190;28;20348;-86
2022/06/29 05:00:00;;;;;;;;;;;;;;;;;;5095698;28;19955;-85
2022/06/29 05:06:02;;;;;;;;;;;;;;;;;;5148736;27;19950;-87
2022/06/29 05:08:28;;;;;;;;;;;;;;;;;;5124841;27;19920;-87
2022/06/29 05:10:53;;;;;;;;;;;;;;;;;;5124566;28;19941;-87
2022/06/29 05:16:29;;;;;;;;;;;;;;;;;;5121130;22;20388;-86
2022/06/29 05:18:54;;;;;;;;;;;;;;;;;;5028808;28;19921;-86
2022/06/29 05:21:20;;;;;;;;;;;;;;;;;;5043889;28;20005;-86
2022/06/29 05:23:54;;;;;;;;;;;;;;;;;;5046337;28;20368;-87
2022/06/29 05:26:22;;;;;;;;;;;;;;;;;;5062165;28;20341;-86
2022/06/29 05:28:47;;;;;;;;;;;;;;;;;;5029087;28;19917;-86
2022/06/29 05:31:13;;;;;;;;;;;;;;;;;;5047777;28;19986;-85
2022/06/29 05:33:51;;;;;;;;;;;;;;;;;;5048063;28;19939;-87
2022/06/29 05:36:29;;;;;;;;;;;;;;;;;;;;;
2022/06/29 05:41:56;;;;;;;;;;;;;;;;;;5205126;22;19932;-90
2022/06/29 05:44:27;;;;;;;;;;;;;;;;;;5047828;28;20019;-87
2022/06/29 05:47:06;;;;;;;;;;;;;;;;;;;;;
2022/06/29 05:50:14;;;;;;;;;;;;;;;;;;5044933;28;20028;-87
2022/06/29 05:53:04;;;;;;;;;;;;;;;;;;5043867;28;20258;-86
2022/06/29 05:55:40;;;;;;;;;;;;;;;;;;5038524;28;19939;-87
2022/06/29 06:00:47;;;;;;;;;;;;;;;;;;5029790;28;20358;-85
2022/06/29 06:03:12;;;;;;;;;;;;;;;;;;5022715;28;20003;-84
2022/06/29 06:05:43;;;;;;;;;;;;;;;;;;5018066;28;19917;-86
2022/06/29 06:08:13;;;;;;;;;;;;;;;;;;5033270;28;19905;-86
2022/06/29 06:10:38;;;;;;;;;;;;;;;;;;5049450;28;20132;-86
2022/06/29 06:13:06;;;;;;;;;;;;;;;;;;5018477;28;19922;-88
2022/06/29 06:15:32;;;;;;;;;;;;;;;;;;5012974;28;19981;-86
2022/06/29 06:17:58;;;;;;;;;;;;;;;;;;5011099;28;19918;-86
2022/06/29 06:20:23;;;;;;;;;;;;;;;;;;5019897;28;20392;-86
2022/06/29 06:22:49;;;;;;;;;;;;;;;;;;5065454;28;19917;-87
2022/06/29 06:28:37;;;;;;;;;;;;;;;;;;4988130;28;19953;-86
2022/06/29 06:31:09;;;;;;;;;;;;;;;;;;5019726;28;19921;-87
2022/06/29 06:39:35;;;;;;;;;;;;;;;;;;4911037;26;19926;-88
2022/06/29 06:48:36;;;;;;;;;;;;;;;;;;4951801;29;19942;-88
2022/06/29 06:51:20;;;;;;;;;;;;;;;;;;4932601;29;19919;-90
2022/06/29 06:53:46;;;;;;;;;;;;;;;;;;4946804;29;20257;-87
2022/06/29 06:56:20;;;;;;;;;;;;;;;;;;4946086;29;19907;-85
2022/06/29 07:05:03;;;;;;;;;;;;;;;;;;5003774;28;19941;-87
2022/06/29 07:22:10;;;;;;;;;;;;;;;;;;4968860;29;19962;-89
2022/06/29 07:24:41;;;;;;;;;;;;;;;;;;4953462;29;19922;-85
2022/06/29 07:27:10;;;;;;;;;;;;;;;;;;4952794;29;19919;-90
2022/06/29 07:29:41;;;;;;;;;;;;;;;;;;4952600;29;19933;-86
2022/06/29 07:32:07;;;;;;;;;;;;;;;;;;4963071;28;19928;-87
2022/06/29 07:34:32;;;;;;;;;;;;;;;;;;5028477;28;20335;-88
2022/06/29 07:37:00;;;;;;;;;;;;;;;;;;5010960;28;19917;-90
2022/06/29 07:39:26;;;;;;;;;;;;;;;;;;4995028;28;19949;-87
2022/06/29 07:41:59;;;;;;;;;;;;;;;;;;5011163;28;19924;-88
2022/06/29 07:44:27;;;;;;;;;;;;;;;;;;5012623;28;19964;-88
2022/06/29 07:46:55;;;;;;;;;;;;;;;;;;4995956;28;19918;-88
2022/06/29 07:49:20;;;;;;;;;;;;;;;;;;4994590;28;19920;-86
2022/06/29 07:51:47;;;;;;;;;;;;;;;;;;4993328;28;19917;-88
2022/06/29 07:54:13;;;;;;;;;;;;;;;;;;5009000;28;20394;-86
2022/06/29 07:56:38;;;;;;;;;;;;;;;;;;4992371;28;19913;-85
2022/06/29 07:59:03;;;;;;;;;;;;;;;;;;5009368;28;19924;-86
2022/06/29 08:01:29;;;;;;;;;;;;;;;;;;5010062;28;19964;-84
2022/06/29 08:03:55;;;;;;;;;;;;;;;;;;5014497;28;19918;-86
2022/06/29 08:06:20;;;;;;;;;;;;;;;;;;4992436;28;19924;-85
2022/06/29 08:08:46;;;;;;;;;;;;;;;;;;4994373;28;19913;-87
2022/06/29 08:11:11;;;;;;;;;;;;;;;;;;4996027;28;20236;-87
2022/06/29 08:16:54;;;;;;;;;;;;;;;;;;4968544;28;19945;-88
2022/06/29 08:19:19;;;;;;;;;;;;;;;;;;4949248;28;19984;-88
2022/06/29 08:21:44;;;;;;;;;;;;;;;;;;5011929;28;19917;-88
2022/06/29 08:24:10;;;;;;;;;;;;;;;;;;5012017;28;19924;-88
2022/06/29 08:26:35;;;;;;;;;;;;;;;;;;5029070;28;19921;-86
2022/06/29 08:32:10;;;;;;;;;;;;;;;;;;;;;
2022/06/29 08:34:39;;;;;;;;;;;;;;;;;;5120327;22;19948;-78
2022/06/29 08:37:05;;;;;;;;;;;;;;;;;;5062678;28;19921;-80
2022/06/29 08:39:30;;;;;;;;;;;;;;;;;;5055931;28;19916;-80
2022/06/29 08:41:56;;;;;;;;;;;;;;;;;;5056248;28;20311;-79
2022/06/29 08:44:22;;;;;;;;;;;;;;;;;;5054817;28;19916;-80
2022/06/29 08:46:47;;;;;;;;;;;;;;;;;;5055689;28;19924;-79
2022/06/29 08:49:13;;;;;;;;;;;;;;;;;;5055747;28;19913;-79
2022/06/29 08:51:38;;;;;;;;;;;;;;;;;;5055337;28;19967;-79
2022/06/29 08:54:06;;;;;;;;;;;;;;;;;;5054768;28;19913;-79
2022/06/29 08:56:31;;;;;;;;;;;;;;;;;;5065640;28;20327;-78
2022/06/29 08:58:57;;;;;;;;;;;;;;;;;;5053024;28;19923;-79
2022/06/29 09:01:22;;;;;;;;;;;;;;;;;;5053121;28;20250;-79
2022/06/29 09:03:47;;;;;;;;;;;;;;;;;;5054437;28;20239;-79
2022/06/29 09:06:13;;;;;;;;;;;;;;;;;;5036067;28;20331;-80
2022/06/29 09:08:38;;;;;;;;;;;;;;;;;;5054470;28;20278;-78
2022/06/29 09:11:22;;;;;;;;;;;;;;;;;;5054928;28;19924;-78
2022/06/29 09:13:47;;;;;;;;;;;;;;;;;;5053755;28;20324;-80
2022/06/29 09:16:12;;;;;;;;;;;;;;;;;;5064175;28;19947;-80
2022/06/29 09:18:38;;;;;;;;;;;;;;;;;;5054670;28;20012;-80
2022/06/29 09:21:04;;;;;;;;;;;;;;;;;;5053672;28;19917;-80
2022/06/29 09:23:29;;;;;;;;;;;;;;;;;;5053896;28;19917;-80
2022/06/29 09:25:55;;;;;;;;;;;;;;;;;;5054229;28;19924;-79
2022/06/29 09:28:23;;;;;;;;;;;;;;;;;;5054182;28;20347;-79
2022/06/29 09:30:49;;;;;;;;;;;;;;;;;;5055222;28;20005;-80
2022/06/29 09:33:14;;;;;;;;;;;;;;;;;;5055228;28;20300;-79
2022/06/29 09:35:39;;;;;;;;;;;;;;;;;;5061950;28;19976;-79
2022/06/29 09:38:17;;;;;;;;;;;;;;;;;;5060442;28;19916;-80
2022/06/29 09:40:58;;;;;;;;;;;;;;;;;;5056003;28;19988;-79
2022/06/29 09:43:24;;;;;;;;;;;;;;;;;;5054960;28;19925;-79
2022/06/29 09:45:49;;;;;;;;;;;;;;;;;;5054974;28;20376;-79
2022/06/29 09:48:15;;;;;;;;;;;;;;;;;;5053760;28;19923;-80
2022/06/29 09:50:40;;;;;;;;;;;;;;;;;;5054758;28;19968;-80
2022/06/29 09:53:05;;;;;;;;;;;;;;;;;;5054923;28;19917;-80
2022/06/29 09:55:31;;;;;;;;;;;;;;;;;;5056635;28;19917;-80
2022/06/29 09:57:56;;;;;;;;;;;;;;;;;;5060190;28;19991;-80
2022/06/29 10:03:19;;;;;;;;;;;;;;;;;;5020889;28;19967;-80
2022/06/29 10:06:04;;;;;;;;;;;;;;;;;;5053631;28;20722;-81
2022/06/29 10:08:31;;;;;;;;;;;;;;;;;;5053436;28;19917;-80
2022/06/29 10:10:57;;;;;;;;;;;;;;;;;;5053537;28;20326;-79
2022/06/29 10:13:39;;;;;;;;;;;;;;;;;;5054293;28;19975;-79
2022/06/29 10:16:14;;;;;;;;;;;;;;;;;;5057814;28;19944;-80
2022/06/29 10:18:45;;;;;;;;;;;;;;;;;;5061140;28;19964;-80
2022/06/29 10:21:14;;;;;;;;;;;;;;;;;;5054661;28;19917;-79
2022/06/29 10:23:43;;;;;;;;;;;;;;;;;;5054633;28;19917;-80
2022/06/29 10:26:35;;;;;;;;;;;;;;;;;;5054532;28;19998;-80
2022/06/29 10:29:09;;;;;;;;;;;;;;;;;;5054653;28;19917;-80
2022/06/29 10:31:49;;;;;;;;;;;;;;;;;;5053978;28;19916;-80
2022/06/29 10:37:04;;;;;;;;;;;;;;;;;;5059979;28;19952;-80
2022/06/29 10:39:48;;;;;;;;;;;;;;;;;;5061138;28;19927;-79
2022/06/29 10:45:08;;;;;;;;;;;;;;;;;;5057353;28;20034;-81
2022/06/29 10:47:33;;;;;;;;;;;;;;;;;;5057445;28;20009;-81
2022/06/29 10:50:14;;;;;;;;;;;;;;;;;;5057996;28;19917;-82
2022/06/29 10:52:39;;;;;;;;;;;;;;;;;;5057779;28;20006;-80
2022/06/29 10:55:05;;;;;;;;;;;;;;;;;;5057335;28;19917;-80
2022/06/29 10:57:34;;;;;;;;;;;;;;;;;;5062118;28;19935;-80
2022/06/29 10:59:59;;;;;;;;;;;;;;;;;;5057294;28;19917;-81
2022/06/29 11:02:24;;;;;;;;;;;;;;;;;;5055752;28;19975;-80
2022/06/29 11:04:50;;;;;;;;;;;;;;;;;;5057426;28;19921;-81
2022/06/29 11:12:52;;;;;;;;;;;;;;;;;;5057282;28;20302;-79
2022/06/29 11:15:40;;;;;;;;;;;;;;;;;;5057611;28;19917;-79
2022/06/29 11:18:08;;;;;;;;;;;;;;;;;;5069145;28;19908;-80
2022/06/29 11:20:33;;;;;;;;;;;;;;;;;;5057575;28;19917;-80
2022/06/29 11:22:59;;;;;;;;;;;;;;;;;;5057420;28;19923;-79
2022/06/29 11:25:27;;;;;;;;;;;;;;;;;;5057128;28;20042;-80
2022/06/29 11:27:52;;;;;;;;;;;;;;;;;;5039294;28;19938;-80
2022/06/29 11:30:22;;;;;;;;;;;;;;;;;;5055289;28;20311;-81
2022/06/29 11:32:47;;;;;;;;;;;;;;;;;;5056962;28;20016;-82
2022/06/29 11:35:14;;;;;;;;;;;;;;;;;;5055895;28;19968;-80
2022/06/29 11:37:46;;;;;;;;;;;;;;;;;;5059194;28;19923;-79
2022/06/29 11:40:12;;;;;;;;;;;;;;;;;;5057727;28;19982;-81
2022/06/29 11:45:20;;;;;;;;;;;;;;;;;;5056116;28;19924;-80
2022/06/29 11:47:51;;;;;;;;;;;;;;;;;;5056831;28;20250;-80
2022/06/29 11:50:16;;;;;;;;;;;;;;;;;;5055490;28;19917;-78
2022/06/29 11:52:44;;;;;;;;;;;;;;;;;;5055881;28;20354;-80
2022/06/29 11:55:09;;;;;;;;;;;;;;;;;;5056543;28;19917;-82
2022/06/29 11:57:35;;;;;;;;;;;;;;;;;;5062551;28;19948;-81
2022/06/29 12:00:06;;;;;;;;;;;;;;;;;;5061397;28;20026;-80
2022/06/29 12:02:35;;;;;;;;;;;;;;;;;;5056570;28;19943;-79
2022/06/29 12:05:01;;;;;;;;;;;;;;;;;;5056035;28;20392;-79
2022/06/29 12:07:27;;;;;;;;;;;;;;;;;;5056310;28;19952;-82
2022/06/29 12:09:53;;;;;;;;;;;;;;;;;;5056234;28;20250;-80
2022/06/29 12:12:18;;;;;;;;;;;;;;;;;;5056179;28;19923;-82
2022/06/29 12:14:43;;;;;;;;;;;;;;;;;;5056146;28;19924;-82
2022/06/29 12:17:09;;;;;;;;;;;;;;;;;;5055956;28;19924;-81
2022/06/29 12:19:35;;;;;;;;;;;;;;;;;;5059491;28;19917;-83
2022/06/29 12:22:00;;;;;;;;;;;;;;;;;;5055060;28;19917;-83
2022/06/29 12:24:26;;;;;;;;;;;;;;;;;;5055802;28;19921;-83
2022/06/29 12:26:52;;;;;;;;;;;;;;;;;;5055963;28;19966;-82
2022/06/29 12:29:17;;;;;;;;;;;;;;;;;;5055849;28;19974;-81
2022/06/29 12:31:43;;;;;;;;;;;;;;;;;;5055543;28;19924;-82
2022/06/29 12:34:09;;;;;;;;;;;;;;;;;;5056016;28;19923;-80
2022/06/29 12:36:34;;;;;;;;;;;;;;;;;;5054595;28;20002;-81
2022/06/29 12:38:59;;;;;;;;;;;;;;;;;;5063329;28;19908;-82
2022/06/29 12:41:25;;;;;;;;;;;;;;;;;;5057566;28;19971;-82
2022/06/29 12:43:50;;;;;;;;;;;;;;;;;;5054947;28;20360;-82
2022/06/29 12:46:15;;;;;;;;;;;;;;;;;;5054495;28;20330;-83
2022/06/29 12:48:41;;;;;;;;;;;;;;;;;;5055606;28;20406;-80
2022/06/29 12:51:06;;;;;;;;;;;;;;;;;;5055522;28;20004;-80
2022/06/29 12:53:31;;;;;;;;;;;;;;;;;;5055584;28;19924;-80
2022/06/29 12:55:59;;;;;;;;;;;;;;;;;;5056383;28;20007;-79
2022/06/29 12:58:27;;;;;;;;;;;;;;;;;;5061772;28;20062;-80
2022/06/29 13:00:53;;;;;;;;;;;;;;;;;;5059579;28;20401;-82
2022/06/29 13:03:18;;;;;;;;;;;;;;;;;;5057665;28;19956;-81
2022/06/29 13:05:44;;;;;;;;;;;;;;;;;;5058092;28;19917;-80
2022/06/29 13:08:17;;;;;;;;;;;;;;;;;;5056013;28;19917;-80
2022/06/29 13:10:42;;;;;;;;;;;;;;;;;;5055364;28;20246;-80
2022/06/29 13:13:10;;;;;;;;;;;;;;;;;;5054456;28;19924;-80
2022/06/29 13:15:35;;;;;;;;;;;;;;;;;;5057891;28;19917;-80
2022/06/29 13:18:06;;;;;;;;;;;;;;;;;;5060389;28;19978;-80
2022/06/29 13:20:31;;;;;;;;;;;;;;;;;;5057979;28;19975;-81
2022/06/29 13:22:57;;;;;;;;;;;;;;;;;;5053492;28;20346;-81
2022/06/29 13:25:22;;;;;;;;;;;;;;;;;;5055230;28;19967;-81
2022/06/29 13:27:48;;;;;;;;;;;;;;;;;;5054870;28;19924;-80
2022/06/29 13:30:13;;;;;;;;;;;;;;;;;;5054922;28;19921;-82
2022/06/29 13:32:38;;;;;;;;;;;;;;;;;;5054577;28;19917;-81
2022/06/29 13:35:04;;;;;;;;;;;;;;;;;;5054425;28;19927;-80
2022/06/29 13:37:29;;;;;;;;;;;;;;;;;;5059966;28;19926;-81
2022/06/29 13:39:55;;;;;;;;;;;;;;;;;;5053556;28;20330;-80
2022/06/29 13:42:20;;;;;;;;;;;;;;;;;;5034730;28;19917;-81
2022/06/29 13:44:45;;;;;;;;;;;;;;;;;;5034327;28;20255;-80
2022/06/29 13:47:10;;;;;;;;;;;;;;;;;;5038415;28;20230;-81
2022/06/29 13:49:36;;;;;;;;;;;;;;;;;;5034103;28;20303;-80
2022/06/29 13:52:02;;;;;;;;;;;;;;;;;;5034625;28;20278;-81
2022/06/29 13:54:27;;;;;;;;;;;;;;;;;;5032975;28;19964;-82
2022/06/29 13:56:52;;;;;;;;;;;;;;;;;;5035522;28;19925;-81
2022/06/29 13:59:18;;;;;;;;;;;;;;;;;;5044081;28;20335;-81
2022/06/29 14:01:43;;;;;;;;;;;;;;;;;;5033086;28;19917;-81
2022/06/29 14:04:09;;;;;;;;;;;;;;;;;;5033745;28;19923;-81
2022/06/29 14:06:34;;;;;;;;;;;;;;;;;;5032969;28;20270;-82
2022/06/29 14:08:59;;;;;;;;;;;;;;;;;;5033218;28;20051;-80
2022/06/29 14:11:25;;;;;;;;;;;;;;;;;;5031427;28;20097;-80
2022/06/29 14:13:51;;;;;;;;;;;;;;;;;;5033405;28;20011;-81
2022/06/29 14:16:16;;;;;;;;;;;;;;;;;;5037064;28;19917;-82
2022/06/29 14:18:42;;;;;;;;;;;;;;;;;;5041645;28;19917;-81
2022/06/29 14:21:07;;;;;;;;;;;;;;;;;;5040935;28;20299;-81
2022/06/29 14:23:34;;;;;;;;;;;;;;;;;;5038237;28;20389;-81
2022/06/29 14:25:59;;;;;;;;;;;;;;;;;;5038260;28;19917;-81
2022/06/29 14:28:24;;;;;;;;;;;;;;;;;;5038486;28;19917;-81
2022/06/29 14:30:50;;;;;;;;;;;;;;;;;;5038070;28;20007;-81
2022/06/29 14:33:15;;;;;;;;;;;;;;;;;;5038021;28;19976;-77
2022/06/29 14:35:40;;;;;;;;;;;;;;;;;;5036713;28;19963;-81
2022/06/29 14:38:05;;;;;;;;;;;;;;;;;;5038250;28;19917;-80
2022/06/29 14:40:31;;;;;;;;;;;;;;;;;;5041660;28;20297;-79
2022/06/29 14:42:56;;;;;;;;;;;;;;;;;;5039058;28;20349;-80
2022/06/29 14:45:22;;;;;;;;;;;;;;;;;;5038556;28;19940;-81
2022/06/29 14:47:50;;;;;;;;;;;;;;;;;;5038439;28;20306;-80
2022/06/29 14:50:36;;;;;;;;;;;;;;;;;;5020233;28;20089;-81
2022/06/29 14:53:01;;;;;;;;;;;;;;;;;;5036817;28;19917;-80
2022/06/29 14:58:14;;;;;;;;;;;;;;;;;;5039112;28;20028;-80
2022/06/29 15:00:42;;;;;;;;;;;;;;;;;;5042753;28;19969;-80
2022/06/29 15:03:15;;;;;;;;;;;;;;;;;;5041212;28;19948;-82
2022/06/29 15:05:40;;;;;;;;;;;;;;;;;;5038136;28;20345;-81
2022/06/29 15:08:08;;;;;;;;;;;;;;;;;;5038495;28;19959;-81
2022/06/29 15:10:35;;;;;;;;;;;;;;;;;;5037742;28;19917;-82
2022/06/29 15:13:02;;;;;;;;;;;;;;;;;;5037342;28;19917;-81
2022/06/29 15:15:27;;;;;;;;;;;;;;;;;;5038018;28;20185;-81
2022/06/29 15:17:56;;;;;;;;;;;;;;;;;;5038640;28;20008;-80
2022/06/29 15:20:21;;;;;;;;;;;;;;;;;;5045727;28;19964;-80
2022/06/29 15:22:49;;;;;;;;;;;;;;;;;;5038743;28;20346;-82
2022/06/29 15:25:15;;;;;;;;;;;;;;;;;;5037808;28;19917;-85
2022/06/29 15:27:45;;;;;;;;;;;;;;;;;;5038775;28;19943;-86
2022/06/29 15:30:11;;;;;;;;;;;;;;;;;;5038278;28;19960;-87
2022/06/29 15:32:36;;;;;;;;;;;;;;;;;;5037294;28;19975;-86
2022/06/29 15:40:38;;;;;;;;;;;;;;;;;;5049382;28;20266;-84
2022/06/29 15:43:07;;;;;;;;;;;;;;;;;;5044814;28;19939;-86
2022/06/29 15:45:32;;;;;;;;;;;;;;;;;;5038775;28;19924;-85
2022/06/29 15:48:09;;;;;;;;;;;;;;;;;;5038250;28;19919;-89
2022/06/29 15:50:34;;;;;;;;;;;;;;;;;;5038673;28;19917;-87
2022/06/29 15:56:12;;;;;;;;;;;;;;;;;;5023177;28;19932;-86
2022/06/29 15:58:40;;;;;;;;;;;;;;;;;;5038441;28;19917;-85
2022/06/29 16:01:12;;;;;;;;;;;;;;;;;;5048244;28;19940;-86
2022/06/29 16:03:39;;;;;;;;;;;;;;;;;;5044059;28;19917;-86
2022/06/29 16:06:08;;;;;;;;;;;;;;;;;;5039505;28;19985;-83
2022/06/29 16:08:35;;;;;;;;;;;;;;;;;;5038105;28;19918;-86
2022/06/29 16:11:06;;;;;;;;;;;;;;;;;;5038195;28;19925;-89
2022/06/29 16:13:34;;;;;;;;;;;;;;;;;;5037686;28;20008;-87
2022/06/29 16:22:49;;;;;;;;;;;;;;;;;;;;;
2022/06/29 16:25:49;;;;;;;;;;;;;;;;;;5044559;28;19995;-86
2022/06/29 16:28:15;;;;;;;;;;;;;;;;;;5036093;28;19961;-85
2022/06/29 16:30:40;;;;;;;;;;;;;;;;;;5036361;28;19977;-85
2022/06/29 16:33:16;;;;;;;;;;;;;;;;;;5036848;28;19932;-85
2022/06/29 16:35:41;;;;;;;;;;;;;;;;;;5035688;28;19924;-85
2022/06/29 16:38:09;;;;;;;;;;;;;;;;;;5038179;28;19924;-85
2022/06/29 16:40:35;;;;;;;;;;;;;;;;;;5042079;28;19921;-86
2022/06/29 16:43:00;;;;;;;;;;;;;;;;;;5051436;28;19976;-86
2022/06/29 16:45:26;;;;;;;;;;;;;;;;;;5043857;28;19971;-86
2022/06/29 16:47:51;;;;;;;;;;;;;;;;;;5037443;28;19984;-86
2022/06/29 16:50:18;;;;;;;;;;;;;;;;;;5037064;28;19953;-87
2022/06/29 16:52:44;;;;;;;;;;;;;;;;;;5035995;28;19974;-87
2022/06/29 16:55:11;;;;;;;;;;;;;;;;;;5037982;28;19980;-86
2022/06/29 16:57:37;;;;;;;;;;;;;;;;;;5039536;28;20323;-86
2022/06/29 17:00:03;;;;;;;;;;;;;;;;;;5039314;28;19987;-85
2022/06/29 17:02:32;;;;;;;;;;;;;;;;;;5050220;28;19992;-85
2022/06/29 17:04:57;;;;;;;;;;;;;;;;;;5046847;28;20383;-85
2022/06/29 17:07:23;;;;;;;;;;;;;;;;;;5021668;28;19960;-85
2022/06/29 17:09:48;;;;;;;;;;;;;;;;;;5034943;28;20012;-85
2022/06/29 17:12:13;;;;;;;;;;;;;;;;;;5034913;28;20264;-86
2022/06/29 17:14:39;;;;;;;;;;;;;;;;;;5035511;28;19924;-85
2022/06/29 17:17:06;;;;;;;;;;;;;;;;;;5033263;28;20209;-87
2022/06/29 17:19:31;;;;;;;;;;;;;;;;;;5034722;28;19923;-86
2022/06/29 17:21:56;;;;;;;;;;;;;;;;;;5047686;28;19972;-85
2022/06/29 17:24:22;;;;;;;;;;;;;;;;;;5047056;28;19921;-85
2022/06/29 17:26:47;;;;;;;;;;;;;;;;;;5035277;28;20335;-84
2022/06/29 17:29:12;;;;;;;;;;;;;;;;;;5034967;28;19917;-85
2022/06/29 17:31:38;;;;;;;;;;;;;;;;;;5035019;28;20343;-85
2022/06/29 17:34:03;;;;;;;;;;;;;;;;;;5034724;28;20259;-86
2022/06/29 17:36:28;;;;;;;;;;;;;;;;;;5035055;28;19922;-85
2022/06/29 17:38:54;;;;;;;;;;;;;;;;;;5034610;28;19922;-85
2022/06/29 17:41:19;;;;;;;;;;;;;;;;;;5042180;28;19945;-85
2022/06/29 17:43:44;;;;;;;;;;;;;;;;;;5045465;28;20012;-84
2022/06/29 17:46:10;;;;;;;;;;;;;;;;;;5035291;28;20001;-85
2022/06/29 17:48:35;;;;;;;;;;;;;;;;;;5033163;28;19917;-85
2022/06/29 17:51:00;;;;;;;;;;;;;;;;;;5034320;28;20711;-85
2022/06/29 17:53:26;;;;;;;;;;;;;;;;;;5035238;28;19917;-87
2022/06/29 17:55:51;;;;;;;;;;;;;;;;;;5035022;28;20010;-84
2022/06/29 17:58:17;;;;;;;;;;;;;;;;;;5033376;28;19917;-85
2022/06/29 18:00:42;;;;;;;;;;;;;;;;;;5045896;28;19985;-85
2022/06/29 18:03:07;;;;;;;;;;;;;;;;;;5050604;28;19909;-85
2022/06/29 18:05:33;;;;;;;;;;;;;;;;;;5037764;28;20323;-85
2022/06/29 18:07:58;;;;;;;;;;;;;;;;;;5034583;28;19963;-85
2022/06/29 18:10:23;;;;;;;;;;;;;;;;;;5033130;28;20247;-85
2022/06/29 18:12:49;;;;;;;;;;;;;;;;;;5032165;28;19913;-85
2022/06/29 18:15:16;;;;;;;;;;;;;;;;;;5016203;28;20295;-86
2022/06/29 18:17:42;;;;;;;;;;;;;;;;;;5033713;28;19917;-84
2022/06/29 18:20:07;;;;;;;;;;;;;;;;;;5034200;28;20254;-85
2022/06/29 18:22:33;;;;;;;;;;;;;;;;;;5040732;28;19921;-85